sensor_id;sensor_type;location;lat;lon;timestamp;P1;durP1;ratioP1;P2;durP2;ratioP2
82170;SDS011;71755;48.038;14.346;2024-02-16T00:00:07;9.80;;;2.38;;
82170;SDS011;71755;48.038;14.346;2024-02-16T00:02:37;4.85;;;3.67;;
82170;SDS011;71755;48.038;14.346;2024-02-16T00:05:06;3.80;;;2.20;;
82170;SDS011;71755;48.038;14.346;2024-02-16T00:07:33;5.85;;;2.33;;
82170;SDS011;71755;48.038;14.346;2024-02-16T00:09:59;6.88;;;1.52;;
82170;SDS011;71755;48.038;14.346;2024-02-16T00:12:26;2.25;;;1.73;;
82170;SDS011;71755;48.038;14.346;2024-02-16T00:14:52;5.15;;;1.88;;
82170;SDS011;71755;48.038;14.346;2024-02-16T00:17:18;5.50;;;2.42;;
82170;SDS011;71755;48.038;14.346;2024-02-16T00:19:44;3.80;;;1.60;;
82170;SDS011;71755;48.038;14.346;2024-02-16T00:22:10;3.30;;;1.70;;
82170;SDS011;71755;48.038;14.346;2024-02-16T00:24:36;3.10;;;1.88;;
82170;SDS011;71755;48.038;14.346;2024-02-16T00:27:02;4.15;;;2.45;;
82170;SDS011;71755;48.038;14.346;2024-02-16T00:29:31;1.90;;;1.60;;
82170;SDS011;71755;48.038;14.346;2024-02-16T00:31:57;4.35;;;1.85;;
82170;SDS011;71755;48.038;14.346;2024-02-16T00:34:24;2.08;;;1.73;;
82170;SDS011;71755;48.038;14.346;2024-02-16T00:36:51;1.30;;;1.20;;
82170;SDS011;71755;48.038;14.346;2024-02-16T00:39:21;1.98;;;1.45;;
82170;SDS011;71755;48.038;14.346;2024-02-16T00:41:47;2.45;;;1.40;;
82170;SDS011;71755;48.038;14.346;2024-02-16T00:44:13;4.55;;;1.38;;
82170;SDS011;71755;48.038;14.346;2024-02-16T00:46:39;4.55;;;1.90;;
82170;SDS011;71755;48.038;14.346;2024-02-16T00:49:06;3.28;;;1.33;;
82170;SDS011;71755;48.038;14.346;2024-02-16T00:51:32;2.42;;;1.42;;
82170;SDS011;71755;48.038;14.346;2024-02-16T00:53:58;5.28;;;2.47;;
82170;SDS011;71755;48.038;14.346;2024-02-16T00:56:23;2.90;;;1.67;;
82170;SDS011;71755;48.038;14.346;2024-02-16T00:58:50;6.78;;;1.88;;
82170;SDS011;71755;48.038;14.346;2024-02-16T01:01:15;1.33;;;1.23;;
82170;SDS011;71755;48.038;14.346;2024-02-16T01:03:41;2.13;;;1.83;;
82170;SDS011;71755;48.038;14.346;2024-02-16T01:06:08;3.50;;;2.30;;
82170;SDS011;71755;48.038;14.346;2024-02-16T01:08:36;3.45;;;1.50;;
82170;SDS011;71755;48.038;14.346;2024-02-16T01:11:02;2.65;;;1.63;;
82170;SDS011;71755;48.038;14.346;2024-02-16T01:13:28;1.48;;;1.38;;
82170;SDS011;71755;48.038;14.346;2024-02-16T01:15:54;4.18;;;1.52;;
82170;SDS011;71755;48.038;14.346;2024-02-16T01:18:20;2.42;;;1.52;;
82170;SDS011;71755;48.038;14.346;2024-02-16T01:20:46;8.70;;;3.78;;
82170;SDS011;71755;48.038;14.346;2024-02-16T01:23:12;1.58;;;1.23;;
82170;SDS011;71755;48.038;14.346;2024-02-16T01:25:37;2.25;;;1.95;;
82170;SDS011;71755;48.038;14.346;2024-02-16T01:28:03;1.30;;;0.88;;
82170;SDS011;71755;48.038;14.346;2024-02-16T01:30:30;4.00;;;1.52;;
82170;SDS011;71755;48.038;14.346;2024-02-16T01:32:56;3.22;;;2.08;;
82170;SDS011;71755;48.038;14.346;2024-02-16T01:35:21;4.82;;;2.53;;
82170;SDS011;71755;48.038;14.346;2024-02-16T01:37:47;4.53;;;2.05;;
82170;SDS011;71755;48.038;14.346;2024-02-16T01:40:14;4.50;;;1.58;;
82170;SDS011;71755;48.038;14.346;2024-02-16T01:42:43;3.70;;;2.25;;
82170;SDS011;71755;48.038;14.346;2024-02-16T01:45:10;3.20;;;1.98;;
82170;SDS011;71755;48.038;14.346;2024-02-16T01:47:38;3.92;;;1.40;;
82170;SDS011;71755;48.038;14.346;2024-02-16T01:50:04;2.75;;;1.23;;
82170;SDS011;71755;48.038;14.346;2024-02-16T01:52:30;4.20;;;1.80;;
82170;SDS011;71755;48.038;14.346;2024-02-16T01:54:59;24.65;;;6.60;;
82170;SDS011;71755;48.038;14.346;2024-02-16T01:57:28;7.53;;;4.00;;
82170;SDS011;71755;48.038;14.346;2024-02-16T01:59:55;4.60;;;2.85;;
82170;SDS011;71755;48.038;14.346;2024-02-16T02:02:20;6.93;;;1.48;;
82170;SDS011;71755;48.038;14.346;2024-02-16T02:04:46;2.10;;;1.42;;
82170;SDS011;71755;48.038;14.346;2024-02-16T02:07:15;3.67;;;1.95;;
82170;SDS011;71755;48.038;14.346;2024-02-16T02:09:41;4.40;;;1.88;;
82170;SDS011;71755;48.038;14.346;2024-02-16T02:12:08;1.63;;;1.42;;
82170;SDS011;71755;48.038;14.346;2024-02-16T02:14:35;2.30;;;1.30;;
82170;SDS011;71755;48.038;14.346;2024-02-16T02:17:03;2.65;;;1.63;;
82170;SDS011;71755;48.038;14.346;2024-02-16T02:19:30;2.47;;;1.50;;
82170;SDS011;71755;48.038;14.346;2024-02-16T02:21:56;1.58;;;1.48;;
82170;SDS011;71755;48.038;14.346;2024-02-16T02:24:22;4.57;;;1.33;;
82170;SDS011;71755;48.038;14.346;2024-02-16T02:26:48;2.13;;;1.35;;
82170;SDS011;71755;48.038;14.346;2024-02-16T02:29:14;1.88;;;1.35;;
82170;SDS011;71755;48.038;14.346;2024-02-16T02:31:40;3.05;;;1.40;;
82170;SDS011;71755;48.038;14.346;2024-02-16T02:34:06;3.22;;;1.50;;
82170;SDS011;71755;48.038;14.346;2024-02-16T02:36:32;2.42;;;1.40;;
82170;SDS011;71755;48.038;14.346;2024-02-16T02:38:58;3.40;;;2.22;;
82170;SDS011;71755;48.038;14.346;2024-02-16T02:41:24;1.83;;;1.38;;
82170;SDS011;71755;48.038;14.346;2024-02-16T02:43:51;5.28;;;1.50;;
82170;SDS011;71755;48.038;14.346;2024-02-16T02:46:18;2.30;;;1.45;;
82170;SDS011;71755;48.038;14.346;2024-02-16T02:48:44;2.70;;;1.35;;
82170;SDS011;71755;48.038;14.346;2024-02-16T02:51:10;3.13;;;1.73;;
82170;SDS011;71755;48.038;14.346;2024-02-16T02:53:36;3.72;;;1.65;;
82170;SDS011;71755;48.038;14.346;2024-02-16T02:56:02;5.28;;;1.60;;
82170;SDS011;71755;48.038;14.346;2024-02-16T02:58:29;5.43;;;2.10;;
82170;SDS011;71755;48.038;14.346;2024-02-16T03:00:55;5.28;;;1.40;;
82170;SDS011;71755;48.038;14.346;2024-02-16T03:03:21;5.63;;;2.63;;
82170;SDS011;71755;48.038;14.346;2024-02-16T03:05:49;6.32;;;3.17;;
82170;SDS011;71755;48.038;14.346;2024-02-16T03:08:15;4.25;;;2.45;;
82170;SDS011;71755;48.038;14.346;2024-02-16T03:10:41;2.53;;;1.95;;
82170;SDS011;71755;48.038;14.346;2024-02-16T03:13:09;1.55;;;1.10;;
82170;SDS011;71755;48.038;14.346;2024-02-16T03:15:38;1.00;;;0.90;;
82170;SDS011;71755;48.038;14.346;2024-02-16T03:18:04;0.90;;;0.85;;
82170;SDS011;71755;48.038;14.346;2024-02-16T03:20:34;2.35;;;1.52;;
82170;SDS011;71755;48.038;14.346;2024-02-16T03:23:01;5.25;;;2.30;;
82170;SDS011;71755;48.038;14.346;2024-02-16T03:25:28;2.38;;;1.58;;
82170;SDS011;71755;48.038;14.346;2024-02-16T03:27:54;1.65;;;1.30;;
82170;SDS011;71755;48.038;14.346;2024-02-16T03:30:20;2.05;;;1.15;;
82170;SDS011;71755;48.038;14.346;2024-02-16T03:32:50;3.72;;;1.35;;
82170;SDS011;71755;48.038;14.346;2024-02-16T03:35:17;11.35;;;4.28;;
82170;SDS011;71755;48.038;14.346;2024-02-16T03:37:44;2.00;;;1.30;;
82170;SDS011;71755;48.038;14.346;2024-02-16T03:40:10;1.92;;;1.25;;
82170;SDS011;71755;48.038;14.346;2024-02-16T03:42:41;4.82;;;1.35;;
82170;SDS011;71755;48.038;14.346;2024-02-16T03:45:07;1.13;;;1.02;;
82170;SDS011;71755;48.038;14.346;2024-02-16T03:47:33;3.00;;;1.23;;
82170;SDS011;71755;48.038;14.346;2024-02-16T03:49:59;4.22;;;1.83;;
82170;SDS011;71755;48.038;14.346;2024-02-16T03:52:26;0.82;;;0.82;;
82170;SDS011;71755;48.038;14.346;2024-02-16T03:54:51;2.75;;;2.53;;
82170;SDS011;71755;48.038;14.346;2024-02-16T03:57:17;2.00;;;1.10;;
82170;SDS011;71755;48.038;14.346;2024-02-16T03:59:43;2.00;;;1.58;;
82170;SDS011;71755;48.038;14.346;2024-02-16T04:02:09;1.35;;;1.15;;
82170;SDS011;71755;48.038;14.346;2024-02-16T04:04:36;2.10;;;1.15;;
82170;SDS011;71755;48.038;14.346;2024-02-16T04:07:02;0.75;;;0.73;;
82170;SDS011;71755;48.038;14.346;2024-02-16T04:09:28;1.65;;;1.02;;
82170;SDS011;71755;48.038;14.346;2024-02-16T04:11:54;5.10;;;2.65;;
82170;SDS011;71755;48.038;14.346;2024-02-16T04:14:20;2.78;;;1.58;;
82170;SDS011;71755;48.038;14.346;2024-02-16T04:16:46;2.15;;;1.42;;
82170;SDS011;71755;48.038;14.346;2024-02-16T04:19:11;2.17;;;1.27;;
82170;SDS011;71755;48.038;14.346;2024-02-16T04:21:37;5.45;;;1.50;;
82170;SDS011;71755;48.038;14.346;2024-02-16T04:24:03;1.70;;;1.30;;
82170;SDS011;71755;48.038;14.346;2024-02-16T04:26:29;2.67;;;1.27;;
82170;SDS011;71755;48.038;14.346;2024-02-16T04:28:55;2.47;;;1.02;;
82170;SDS011;71755;48.038;14.346;2024-02-16T04:31:21;1.67;;;1.30;;
82170;SDS011;71755;48.038;14.346;2024-02-16T04:33:48;3.92;;;1.80;;
82170;SDS011;71755;48.038;14.346;2024-02-16T04:36:15;4.50;;;1.98;;
82170;SDS011;71755;48.038;14.346;2024-02-16T04:38:41;5.63;;;2.17;;
82170;SDS011;71755;48.038;14.346;2024-02-16T04:41:08;8.32;;;2.08;;
82170;SDS011;71755;48.038;14.346;2024-02-16T04:43:34;5.40;;;2.65;;
82170;SDS011;71755;48.038;14.346;2024-02-16T04:46:00;10.18;;;4.22;;
82170;SDS011;71755;48.038;14.346;2024-02-16T04:48:26;3.85;;;2.65;;
82170;SDS011;71755;48.038;14.346;2024-02-16T04:50:53;5.75;;;2.28;;
82170;SDS011;71755;48.038;14.346;2024-02-16T04:53:18;13.05;;;3.72;;
82170;SDS011;71755;48.038;14.346;2024-02-16T04:55:44;4.93;;;3.42;;
82170;SDS011;71755;48.038;14.346;2024-02-16T04:58:11;1.63;;;1.30;;
82170;SDS011;71755;48.038;14.346;2024-02-16T05:00:40;1.70;;;1.48;;
82170;SDS011;71755;48.038;14.346;2024-02-16T05:03:06;2.28;;;1.27;;
82170;SDS011;71755;48.038;14.346;2024-02-16T05:05:33;2.60;;;1.77;;
82170;SDS011;71755;48.038;14.346;2024-02-16T05:08:00;3.75;;;2.08;;
82170;SDS011;71755;48.038;14.346;2024-02-16T05:10:26;9.48;;;1.98;;
82170;SDS011;71755;48.038;14.346;2024-02-16T05:12:52;2.15;;;1.63;;
82170;SDS011;71755;48.038;14.346;2024-02-16T05:15:18;4.00;;;1.60;;
82170;SDS011;71755;48.038;14.346;2024-02-16T05:17:46;2.20;;;1.80;;
82170;SDS011;71755;48.038;14.346;2024-02-16T05:20:16;8.38;;;1.75;;
82170;SDS011;71755;48.038;14.346;2024-02-16T05:22:45;4.32;;;2.08;;
82170;SDS011;71755;48.038;14.346;2024-02-16T05:25:12;6.93;;;2.03;;
82170;SDS011;71755;48.038;14.346;2024-02-16T05:27:39;7.93;;;1.70;;
82170;SDS011;71755;48.038;14.346;2024-02-16T05:30:05;1.80;;;1.33;;
82170;SDS011;71755;48.038;14.346;2024-02-16T05:32:35;11.43;;;1.98;;
82170;SDS011;71755;48.038;14.346;2024-02-16T05:35:05;6.28;;;1.70;;
82170;SDS011;71755;48.038;14.346;2024-02-16T05:37:37;2.47;;;1.45;;
82170;SDS011;71755;48.038;14.346;2024-02-16T05:40:09;1.90;;;1.23;;
82170;SDS011;71755;48.038;14.346;2024-02-16T05:42:56;4.95;;;1.63;;
82170;SDS011;71755;48.038;14.346;2024-02-16T05:45:23;6.85;;;2.28;;
82170;SDS011;71755;48.038;14.346;2024-02-16T05:47:50;3.72;;;1.50;;
82170;SDS011;71755;48.038;14.346;2024-02-16T05:50:17;2.28;;;1.77;;
82170;SDS011;71755;48.038;14.346;2024-02-16T05:52:43;11.20;;;1.67;;
82170;SDS011;71755;48.038;14.346;2024-02-16T05:55:10;5.00;;;2.55;;
82170;SDS011;71755;48.038;14.346;2024-02-16T05:57:36;3.88;;;2.08;;
82170;SDS011;71755;48.038;14.346;2024-02-16T06:00:06;14.40;;;2.22;;
82170;SDS011;71755;48.038;14.346;2024-02-16T06:02:38;2.72;;;1.92;;
82170;SDS011;71755;48.038;14.346;2024-02-16T06:05:05;3.38;;;1.95;;
82170;SDS011;71755;48.038;14.346;2024-02-16T06:07:32;8.05;;;2.00;;
82170;SDS011;71755;48.038;14.346;2024-02-16T06:09:58;12.13;;;1.70;;
82170;SDS011;71755;48.038;14.346;2024-02-16T06:12:23;3.72;;;1.83;;
82170;SDS011;71755;48.038;14.346;2024-02-16T06:14:50;2.35;;;2.13;;
82170;SDS011;71755;48.038;14.346;2024-02-16T06:17:16;3.63;;;2.72;;
82170;SDS011;71755;48.038;14.346;2024-02-16T06:19:42;2.65;;;1.80;;
82170;SDS011;71755;48.038;14.346;2024-02-16T06:22:09;3.58;;;2.05;;
82170;SDS011;71755;48.038;14.346;2024-02-16T06:24:35;1.85;;;1.60;;
82170;SDS011;71755;48.038;14.346;2024-02-16T06:27:02;2.25;;;1.50;;
82170;SDS011;71755;48.038;14.346;2024-02-16T06:29:29;5.85;;;1.75;;
82170;SDS011;71755;48.038;14.346;2024-02-16T06:31:55;4.22;;;1.88;;
82170;SDS011;71755;48.038;14.346;2024-02-16T06:34:22;2.05;;;1.85;;
82170;SDS011;71755;48.038;14.346;2024-02-16T06:36:48;2.97;;;2.03;;
82170;SDS011;71755;48.038;14.346;2024-02-16T06:39:17;3.75;;;2.20;;
82170;SDS011;71755;48.038;14.346;2024-02-16T06:41:44;7.95;;;2.20;;
82170;SDS011;71755;48.038;14.346;2024-02-16T06:44:14;6.68;;;1.90;;
82170;SDS011;71755;48.038;14.346;2024-02-16T06:46:41;6.72;;;3.60;;
82170;SDS011;71755;48.038;14.346;2024-02-16T06:49:10;8.95;;;2.60;;
82170;SDS011;71755;48.038;14.346;2024-02-16T06:51:36;2.00;;;1.60;;
82170;SDS011;71755;48.038;14.346;2024-02-16T06:54:03;2.03;;;1.60;;
82170;SDS011;71755;48.038;14.346;2024-02-16T06:56:29;8.00;;;2.75;;
82170;SDS011;71755;48.038;14.346;2024-02-16T06:58:56;3.35;;;1.80;;
82170;SDS011;71755;48.038;14.346;2024-02-16T07:01:22;2.40;;;1.77;;
82170;SDS011;71755;48.038;14.346;2024-02-16T07:03:47;7.55;;;3.45;;
82170;SDS011;71755;48.038;14.346;2024-02-16T07:06:13;11.25;;;2.97;;
82170;SDS011;71755;48.038;14.346;2024-02-16T07:08:39;5.85;;;3.65;;
82170;SDS011;71755;48.038;14.346;2024-02-16T07:11:06;8.35;;;5.47;;
82170;SDS011;71755;48.038;14.346;2024-02-16T07:13:33;8.15;;;4.82;;
82170;SDS011;71755;48.038;14.346;2024-02-16T07:16:00;15.18;;;5.15;;
82170;SDS011;71755;48.038;14.346;2024-02-16T07:18:25;10.23;;;4.90;;
82170;SDS011;71755;48.038;14.346;2024-02-16T07:20:52;9.77;;;4.30;;
82170;SDS011;71755;48.038;14.346;2024-02-16T07:23:18;13.40;;;5.28;;
82170;SDS011;71755;48.038;14.346;2024-02-16T07:25:44;14.77;;;7.10;;
82170;SDS011;71755;48.038;14.346;2024-02-16T07:28:11;15.57;;;6.80;;
82170;SDS011;71755;48.038;14.346;2024-02-16T07:30:37;13.52;;;6.82;;
82170;SDS011;71755;48.038;14.346;2024-02-16T07:33:06;24.30;;;5.82;;
82170;SDS011;71755;48.038;14.346;2024-02-16T07:35:35;16.45;;;7.15;;
82170;SDS011;71755;48.038;14.346;2024-02-16T07:38:02;14.40;;;5.57;;
82170;SDS011;71755;48.038;14.346;2024-02-16T07:40:28;10.10;;;3.47;;
82170;SDS011;71755;48.038;14.346;2024-02-16T07:42:54;15.82;;;4.78;;
82170;SDS011;71755;48.038;14.346;2024-02-16T07:45:20;18.10;;;5.22;;
82170;SDS011;71755;48.038;14.346;2024-02-16T07:47:47;12.13;;;3.75;;
82170;SDS011;71755;48.038;14.346;2024-02-16T07:50:13;13.48;;;4.75;;
82170;SDS011;71755;48.038;14.346;2024-02-16T07:52:39;9.13;;;4.47;;
82170;SDS011;71755;48.038;14.346;2024-02-16T07:55:07;17.75;;;4.13;;
82170;SDS011;71755;48.038;14.346;2024-02-16T07:57:34;29.90;;;7.30;;
82170;SDS011;71755;48.038;14.346;2024-02-16T08:00:01;15.07;;;5.43;;
82170;SDS011;71755;48.038;14.346;2024-02-16T08:02:29;13.90;;;4.53;;
82170;SDS011;71755;48.038;14.346;2024-02-16T08:04:54;11.43;;;3.10;;
82170;SDS011;71755;48.038;14.346;2024-02-16T08:07:21;13.32;;;4.70;;
82170;SDS011;71755;48.038;14.346;2024-02-16T08:09:47;11.15;;;6.18;;
82170;SDS011;71755;48.038;14.346;2024-02-16T08:12:13;9.85;;;4.13;;
82170;SDS011;71755;48.038;14.346;2024-02-16T08:14:39;18.25;;;5.28;;
82170;SDS011;71755;48.038;14.346;2024-02-16T08:17:05;17.70;;;4.47;;
82170;SDS011;71755;48.038;14.346;2024-02-16T08:19:33;12.60;;;5.07;;
82170;SDS011;71755;48.038;14.346;2024-02-16T08:22:01;17.33;;;6.43;;
82170;SDS011;71755;48.038;14.346;2024-02-16T08:24:34;28.10;;;8.45;;
82170;SDS011;71755;48.038;14.346;2024-02-16T08:27:01;21.90;;;7.10;;
82170;SDS011;71755;48.038;14.346;2024-02-16T08:29:27;15.30;;;5.95;;
82170;SDS011;71755;48.038;14.346;2024-02-16T08:31:54;14.35;;;6.75;;
82170;SDS011;71755;48.038;14.346;2024-02-16T08:34:20;16.40;;;6.35;;
82170;SDS011;71755;48.038;14.346;2024-02-16T08:36:47;18.20;;;6.93;;
82170;SDS011;71755;48.038;14.346;2024-02-16T08:39:14;17.95;;;6.47;;
82170;SDS011;71755;48.038;14.346;2024-02-16T08:41:41;17.83;;;7.95;;
82170;SDS011;71755;48.038;14.346;2024-02-16T08:44:09;12.82;;;5.45;;
82170;SDS011;71755;48.038;14.346;2024-02-16T08:46:37;24.23;;;9.65;;
82170;SDS011;71755;48.038;14.346;2024-02-16T08:49:04;16.65;;;6.97;;
82170;SDS011;71755;48.038;14.346;2024-02-16T08:51:33;17.13;;;6.22;;
82170;SDS011;71755;48.038;14.346;2024-02-16T08:54:00;14.32;;;4.50;;
82170;SDS011;71755;48.038;14.346;2024-02-16T08:56:27;15.93;;;5.32;;
82170;SDS011;71755;48.038;14.346;2024-02-16T08:58:54;15.90;;;6.28;;
82170;SDS011;71755;48.038;14.346;2024-02-16T09:01:29;11.95;;;6.40;;
82170;SDS011;71755;48.038;14.346;2024-02-16T09:04:03;21.00;;;9.38;;
82170;SDS011;71755;48.038;14.346;2024-02-16T09:06:29;25.48;;;10.02;;
82170;SDS011;71755;48.038;14.346;2024-02-16T09:08:56;17.52;;;7.30;;
82170;SDS011;71755;48.038;14.346;2024-02-16T09:11:22;20.15;;;8.73;;
82170;SDS011;71755;48.038;14.346;2024-02-16T09:13:49;18.75;;;5.10;;
82170;SDS011;71755;48.038;14.346;2024-02-16T09:16:15;16.20;;;9.52;;
82170;SDS011;71755;48.038;14.346;2024-02-16T09:18:41;29.55;;;10.18;;
82170;SDS011;71755;48.038;14.346;2024-02-16T09:21:07;23.00;;;8.02;;
82170;SDS011;71755;48.038;14.346;2024-02-16T09:23:34;20.92;;;8.80;;
82170;SDS011;71755;48.038;14.346;2024-02-16T09:26:01;17.77;;;7.63;;
82170;SDS011;71755;48.038;14.346;2024-02-16T09:28:28;26.02;;;9.50;;
82170;SDS011;71755;48.038;14.346;2024-02-16T09:30:56;20.55;;;10.02;;
82170;SDS011;71755;48.038;14.346;2024-02-16T09:33:22;24.95;;;9.32;;
82170;SDS011;71755;48.038;14.346;2024-02-16T09:35:52;22.02;;;8.60;;
82170;SDS011;71755;48.038;14.346;2024-02-16T09:38:18;25.90;;;10.07;;
82170;SDS011;71755;48.038;14.346;2024-02-16T09:40:45;20.48;;;9.88;;
82170;SDS011;71755;48.038;14.346;2024-02-16T09:43:21;19.27;;;8.18;;
82170;SDS011;71755;48.038;14.346;2024-02-16T09:45:53;18.33;;;8.80;;
82170;SDS011;71755;48.038;14.346;2024-02-16T09:48:25;20.85;;;8.05;;
82170;SDS011;71755;48.038;14.346;2024-02-16T09:50:56;20.77;;;8.38;;
82170;SDS011;71755;48.038;14.346;2024-02-16T09:53:27;15.25;;;6.75;;
82170;SDS011;71755;48.038;14.346;2024-02-16T09:55:54;19.85;;;8.32;;
82170;SDS011;71755;48.038;14.346;2024-02-16T09:58:20;17.70;;;8.75;;
82170;SDS011;71755;48.038;14.346;2024-02-16T10:05:49;18.63;;;7.82;;
82170;SDS011;71755;48.038;14.346;2024-02-16T10:08:18;20.35;;;8.95;;
82170;SDS011;71755;48.038;14.346;2024-02-16T10:10:45;19.88;;;8.68;;
82170;SDS011;71755;48.038;14.346;2024-02-16T10:13:11;13.18;;;7.43;;
82170;SDS011;71755;48.038;14.346;2024-02-16T10:15:37;22.92;;;8.15;;
82170;SDS011;71755;48.038;14.346;2024-02-16T10:18:03;18.70;;;7.15;;
82170;SDS011;71755;48.038;14.346;2024-02-16T10:20:34;23.38;;;8.52;;
82170;SDS011;71755;48.038;14.346;2024-02-16T10:23:10;20.80;;;8.48;;
82170;SDS011;71755;48.038;14.346;2024-02-16T10:25:37;23.67;;;11.20;;
82170;SDS011;71755;48.038;14.346;2024-02-16T10:28:08;27.02;;;8.30;;
82170;SDS011;71755;48.038;14.346;2024-02-16T10:30:37;17.45;;;7.32;;
82170;SDS011;71755;48.038;14.346;2024-02-16T10:33:05;24.50;;;8.50;;
82170;SDS011;71755;48.038;14.346;2024-02-16T10:35:35;15.80;;;6.07;;
82170;SDS011;71755;48.038;14.346;2024-02-16T10:38:02;22.92;;;7.90;;
82170;SDS011;71755;48.038;14.346;2024-02-16T10:40:38;16.10;;;8.43;;
82170;SDS011;71755;48.038;14.346;2024-02-16T10:43:05;17.02;;;7.30;;
82170;SDS011;71755;48.038;14.346;2024-02-16T10:45:36;20.27;;;8.65;;
82170;SDS011;71755;48.038;14.346;2024-02-16T10:48:04;22.45;;;9.43;;
82170;SDS011;71755;48.038;14.346;2024-02-16T10:50:35;17.63;;;8.05;;
82170;SDS011;71755;48.038;14.346;2024-02-16T10:53:22;23.87;;;7.43;;
82170;SDS011;71755;48.038;14.346;2024-02-16T10:55:51;14.75;;;6.65;;
82170;SDS011;71755;48.038;14.346;2024-02-16T10:58:17;16.58;;;6.13;;
82170;SDS011;71755;48.038;14.346;2024-02-16T11:00:51;16.13;;;8.32;;
82170;SDS011;71755;48.038;14.346;2024-02-16T11:03:21;14.68;;;7.82;;
82170;SDS011;71755;48.038;14.346;2024-02-16T11:05:52;13.38;;;7.53;;
82170;SDS011;71755;48.038;14.346;2024-02-16T11:08:19;18.33;;;8.57;;
82170;SDS011;71755;48.038;14.346;2024-02-16T11:10:56;16.33;;;7.88;;
82170;SDS011;71755;48.038;14.346;2024-02-16T11:13:24;15.88;;;5.78;;
82170;SDS011;71755;48.038;14.346;2024-02-16T11:15:57;19.33;;;8.25;;
82170;SDS011;71755;48.038;14.346;2024-02-16T11:18:30;20.58;;;7.32;;
82170;SDS011;71755;48.038;14.346;2024-02-16T11:21:01;16.55;;;7.32;;
82170;SDS011;71755;48.038;14.346;2024-02-16T11:23:28;14.75;;;6.80;;
82170;SDS011;71755;48.038;14.346;2024-02-16T11:28:31;14.07;;;6.38;;
82170;SDS011;71755;48.038;14.346;2024-02-16T11:30:59;23.90;;;9.23;;
82170;SDS011;71755;48.038;14.346;2024-02-16T11:33:29;14.50;;;6.65;;
82170;SDS011;71755;48.038;14.346;2024-02-16T11:35:59;20.35;;;8.05;;
82170;SDS011;71755;48.038;14.346;2024-02-16T11:38:26;12.82;;;6.18;;
82170;SDS011;71755;48.038;14.346;2024-02-16T11:40:53;13.65;;;6.70;;
82170;SDS011;71755;48.038;14.346;2024-02-16T11:43:23;16.02;;;7.85;;
82170;SDS011;71755;48.038;14.346;2024-02-16T11:45:50;16.38;;;9.18;;
82170;SDS011;71755;48.038;14.346;2024-02-16T11:48:20;22.10;;;8.57;;
82170;SDS011;71755;48.038;14.346;2024-02-16T11:50:58;10.20;;;6.45;;
82170;SDS011;71755;48.038;14.346;2024-02-16T11:53:27;16.60;;;6.93;;
82170;SDS011;71755;48.038;14.346;2024-02-16T11:55:56;12.52;;;6.07;;
82170;SDS011;71755;48.038;14.346;2024-02-16T11:58:23;14.55;;;7.03;;
82170;SDS011;71755;48.038;14.346;2024-02-16T12:00:50;15.13;;;7.25;;
82170;SDS011;71755;48.038;14.346;2024-02-16T12:08:18;10.20;;;5.45;;
82170;SDS011;71755;48.038;14.346;2024-02-16T12:10:48;11.63;;;6.97;;
82170;SDS011;71755;48.038;14.346;2024-02-16T12:13:16;15.30;;;7.10;;
82170;SDS011;71755;48.038;14.346;2024-02-16T12:18:36;14.48;;;7.45;;
82170;SDS011;71755;48.038;14.346;2024-02-16T12:21:03;11.90;;;7.70;;
82170;SDS011;71755;48.038;14.346;2024-02-16T12:23:31;14.38;;;7.03;;
82170;SDS011;71755;48.038;14.346;2024-02-16T12:25:58;13.65;;;6.85;;
82170;SDS011;71755;48.038;14.346;2024-02-16T12:28:25;13.93;;;7.70;;
82170;SDS011;71755;48.038;14.346;2024-02-16T12:30:58;15.23;;;7.18;;
82170;SDS011;71755;48.038;14.346;2024-02-16T12:33:25;16.98;;;7.53;;
82170;SDS011;71755;48.038;14.346;2024-02-16T12:35:52;15.10;;;6.68;;
82170;SDS011;71755;48.038;14.346;2024-02-16T12:38:19;15.57;;;6.75;;
82170;SDS011;71755;48.038;14.346;2024-02-16T12:40:48;12.30;;;5.65;;
82170;SDS011;71755;48.038;14.346;2024-02-16T12:43:15;17.50;;;6.35;;
82170;SDS011;71755;48.038;14.346;2024-02-16T12:45:41;11.95;;;7.20;;
82170;SDS011;71755;48.038;14.346;2024-02-16T12:48:07;14.25;;;5.70;;
82170;SDS011;71755;48.038;14.346;2024-02-16T12:50:35;14.52;;;6.90;;
82170;SDS011;71755;48.038;14.346;2024-02-16T12:53:02;11.48;;;5.47;;
82170;SDS011;71755;48.038;14.346;2024-02-16T12:55:28;16.15;;;6.35;;
82170;SDS011;71755;48.038;14.346;2024-02-16T12:57:54;11.95;;;6.60;;
82170;SDS011;71755;48.038;14.346;2024-02-16T13:00:20;12.20;;;6.50;;
82170;SDS011;71755;48.038;14.346;2024-02-16T13:02:46;15.52;;;6.90;;
82170;SDS011;71755;48.038;14.346;2024-02-16T13:05:12;15.13;;;6.55;;
82170;SDS011;71755;48.038;14.346;2024-02-16T13:07:37;8.75;;;5.95;;
82170;SDS011;71755;48.038;14.346;2024-02-16T13:10:05;13.40;;;6.53;;
82170;SDS011;71755;48.038;14.346;2024-02-16T13:12:32;12.07;;;5.20;;
82170;SDS011;71755;48.038;14.346;2024-02-16T13:14:58;12.68;;;6.20;;
82170;SDS011;71755;48.038;14.346;2024-02-16T13:17:24;14.05;;;5.80;;
82170;SDS011;71755;48.038;14.346;2024-02-16T13:19:52;15.00;;;5.35;;
82170;SDS011;71755;48.038;14.346;2024-02-16T13:22:18;16.10;;;6.43;;
82170;SDS011;71755;48.038;14.346;2024-02-16T13:24:44;11.57;;;5.18;;
82170;SDS011;71755;48.038;14.346;2024-02-16T13:27:10;13.07;;;6.68;;
82170;SDS011;71755;48.038;14.346;2024-02-16T13:29:35;17.00;;;7.05;;
82170;SDS011;71755;48.038;14.346;2024-02-16T13:32:01;11.65;;;5.72;;
82170;SDS011;71755;48.038;14.346;2024-02-16T13:34:29;10.77;;;6.03;;
82170;SDS011;71755;48.038;14.346;2024-02-16T13:36:56;13.07;;;6.07;;
82170;SDS011;71755;48.038;14.346;2024-02-16T13:39:22;13.00;;;6.47;;
82170;SDS011;71755;48.038;14.346;2024-02-16T13:41:48;14.90;;;7.22;;
82170;SDS011;71755;48.038;14.346;2024-02-16T13:44:17;8.25;;;5.70;;
82170;SDS011;71755;48.038;14.346;2024-02-16T13:46:45;12.60;;;7.63;;
82170;SDS011;71755;48.038;14.346;2024-02-16T13:49:13;14.20;;;6.30;;
82170;SDS011;71755;48.038;14.346;2024-02-16T13:51:40;11.20;;;6.15;;
82170;SDS011;71755;48.038;14.346;2024-02-16T13:54:07;16.90;;;7.18;;
82170;SDS011;71755;48.038;14.346;2024-02-16T13:56:33;10.45;;;6.13;;
82170;SDS011;71755;48.038;14.346;2024-02-16T13:59:01;13.35;;;5.63;;
82170;SDS011;71755;48.038;14.346;2024-02-16T14:01:28;9.75;;;5.20;;
82170;SDS011;71755;48.038;14.346;2024-02-16T14:03:55;15.57;;;6.82;;
82170;SDS011;71755;48.038;14.346;2024-02-16T14:06:21;12.93;;;7.07;;
82170;SDS011;71755;48.038;14.346;2024-02-16T14:08:47;11.45;;;6.25;;
82170;SDS011;71755;48.038;14.346;2024-02-16T14:11:14;8.15;;;4.65;;
82170;SDS011;71755;48.038;14.346;2024-02-16T14:13:39;13.10;;;7.72;;
82170;SDS011;71755;48.038;14.346;2024-02-16T14:16:05;13.52;;;7.13;;
82170;SDS011;71755;48.038;14.346;2024-02-16T14:18:33;10.50;;;6.07;;
82170;SDS011;71755;48.038;14.346;2024-02-16T14:20:58;13.50;;;5.28;;
82170;SDS011;71755;48.038;14.346;2024-02-16T14:23:24;11.00;;;5.43;;
82170;SDS011;71755;48.038;14.346;2024-02-16T14:25:50;9.75;;;4.90;;
82170;SDS011;71755;48.038;14.346;2024-02-16T14:28:16;13.02;;;5.65;;
82170;SDS011;71755;48.038;14.346;2024-02-16T14:30:41;11.23;;;4.97;;
82170;SDS011;71755;48.038;14.346;2024-02-16T14:33:08;11.43;;;5.07;;
82170;SDS011;71755;48.038;14.346;2024-02-16T14:35:34;13.50;;;6.30;;
82170;SDS011;71755;48.038;14.346;2024-02-16T14:38:02;9.40;;;5.15;;
82170;SDS011;71755;48.038;14.346;2024-02-16T14:40:31;11.52;;;4.53;;
82170;SDS011;71755;48.038;14.346;2024-02-16T14:42:58;12.50;;;5.30;;